Pagrindinis puslapis
METAR-TAF:

METAR-TAF

Oro uostai :

Londonas Biggin Hill, Anglija

platuma: 51-19N, ilguma: 000-02E, Aukštis: 183 m

Dabartinis oras

Ataskaita buvo paskelbta 3 valandos ir 50 minutes, ne 21:20 UTC
Vėjas 7 kt iš Rytų
Temperatūra 9°C
Drėgmė 76%
Slėgis 1026 hPa
Matomumas 10 km arba daugiau
nėra debesų žemiau 1500 m ir nėra kamuolinių lietaus debesų

METAR: EGKB 092120Z 08007KT CAVOK 09/05 Q1026

Laikas: 02:10 (01:10 UTC)

Prognozė

Ataskaita buvo paskelbta 4 valandos ir 6 minutes, ne 21:04 UTC
Prognozė galioja nuo 09 metu 21 UTC su 09 metu 22 UTC
Vėjas 8 kt iš Rytų
Matomumas 10 km arba daugiau
nėra debesų žemiau 1500 m ir nėra kamuolinių lietaus debesų

TAF: EGKB 092104Z 0921/0922 08008KT CAVOK

Orai ataskaitas ir orų prognozės (METAR, TAF).

turimą stotys yra geltonos ir raudonos taškus žemėlapyje.

Perkelti pele per norėdami pamatyti stoties vardą.

Tada spustelėkite, norėdami matyti oro stebėjimo ir prognozės.

Norėdami pakeisti žemėlapį: spustelėkite ant žalios mygtukų su juodo kryžiaus žemyn,; žalią mygtuką su brūkšneliu, jei norite nutolinti; arba žalių rodyklių gretimoms žemėlapius.


METAR-TAF: